マドリード/バラハス の空港の天気 - METARとTAF

マドリード・バラハス国際空港 ( LEMD / MAD ) - スペイン マドリード
飛行場実況気象(Metar)
観測時間10/22 14:00 CEST (10/22 12:00 UTC)
風向・風速南 6m/s
視程10km以上
天気現象
少しの雲 雲底高度 610m
全天の4割程度の雲 雲底高度 910m
全天の8割程度の雲 雲底高度 2440m
気温16℃
湿度77%
気圧1014hPa
METARLEMD 221200Z 19011KT 9999 FEW020 SCT030 BKN080 16/12 Q1014 NOSIG
過去の天気等 Google飛行場航空写真 Wunderground天気予報

過去48時間のMETAR

飛行場予報(TAF)
発表時間: 10/22 13:00 CEST (10/22 11:00 UTC)
予報対象時間: 22日14時 CEST ~ 23日20時 CEST
風向・風速不定 3m/s
視程10km以上
全天の4割程度の雲 雲底高度 910m
全天の8割程度の雲 雲底高度 1220m
22日14時 CEST ~ 23日1時 CEST に一時的に
風向・風速南 5m/s
天気現象
22日17時 CEST ~ 22日24時 CEST に 確率 30% で一時的に
視程4000m
天気現象しゅう雨
全天の4割程度の塔状積雲 雲底高度 910m
23日1時 CEST ~ 23日11時 CEST に 確率 40% で一時的に
風向・風速南西 5m/s
視程3000m
天気現象霧雨
全天の8割程度の雲 雲底高度 300m
23日9時 CEST ~ 23日11時 CEST に徐々に
風向・風速南西 5m/s
23日11時 CEST ~ 23日20時 CEST に 確率 40% で一時的に
天気現象しゅう雨
全天の4割程度の塔状積雲 雲底高度 910m
TAF LEMD 221100Z 2212/2318 VRB05KT 9999 SCT030 BKN040 TX17/2216Z TN10/2307Z
TEMPO 2212/2223 18010KT RA
PROB30 TEMPO 2215/2222 4000 SHRA SCT030TCU
PROB40 TEMPO 2223/2309 22010KT 3000 DZ BKN010
BECMG 2307/2309 23010KT
PROB40 TEMPO 2309/2318 SHRA SCT030TCU